Terminal Aerodrome Forecast
Issued by NWS

Current Version | Previous Version | Graphics & Text | Print | Product List | Glossary On
Versions: 1 2 3 4 5 6 7 8 9 10 11 12 13 14 15 16 17 18 19 20 21 22
000
FTUS41 KRLX 040200 AAA
TAFCKB
TAF AMD
KCKB 040237Z 0403/0424 20015G23KT 6SM -RA BR OVC025
      TEMPO 0404/0406 2SM -RA BR BKN010
     FM040600 21010G15KT 6SM -RA OVC023
     FM040900 23009KT 3SM -RA BR OVC009
     FM041000 27005KT 3/4SM -RA BR OVC003=

USA.gov is the U.S. government's official web portal to all federal, state and local government web resources and services.